createdAt,value
2022-12-27T00:00:20.427Z,5.91
2022-12-27T00:02:47.422Z,5.84
2022-12-27T00:05:15.569Z,5.53
2022-12-27T00:07:44.250Z,5.44
2022-12-27T00:10:12.111Z,5.48
2022-12-27T00:12:44.014Z,5.51
2022-12-27T00:15:11.108Z,5.43
2022-12-27T00:17:40.991Z,5.56
2022-12-27T00:20:11.749Z,5.60
2022-12-27T00:22:40.154Z,5.70
2022-12-27T00:25:08.040Z,5.93
2022-12-27T00:27:37.539Z,5.76
2022-12-27T00:30:05.957Z,5.66
2022-12-27T00:32:33.049Z,5.45
2022-12-27T00:35:00.176Z,5.39
2022-12-27T00:37:27.414Z,5.37
2022-12-27T00:39:54.348Z,5.54
2022-12-27T00:42:23.402Z,5.29
2022-12-27T00:44:50.597Z,5.26
2022-12-27T00:47:17.516Z,5.21
2022-12-27T00:49:47.390Z,5.21
2022-12-27T00:52:14.477Z,5.30
2022-12-27T00:54:44.111Z,5.28
2022-12-27T00:57:11.096Z,5.48
2022-12-27T00:59:37.932Z,5.30
2022-12-27T01:02:04.958Z,5.32
2022-12-27T01:04:32.056Z,5.21
2022-12-27T01:07:02.334Z,5.38
2022-12-27T01:09:29.339Z,5.44
2022-12-27T01:11:56.341Z,5.47
2022-12-27T01:14:25.535Z,5.19
2022-12-27T01:16:52.508Z,5.36
2022-12-27T01:19:19.564Z,5.45
2022-12-27T01:21:46.580Z,5.51
2022-12-27T01:24:13.541Z,5.24
2022-12-27T01:26:43.025Z,5.34
2022-12-27T01:29:13.089Z,5.17
2022-12-27T01:31:40.324Z,5.40
2022-12-27T01:34:09.466Z,5.40
2022-12-27T01:36:36.479Z,5.49
2022-12-27T01:39:04.017Z,5.31
2022-12-27T01:41:54.175Z,5.27
2022-12-27T01:44:39.324Z,5.30
2022-12-27T01:47:46.182Z,5.39
2022-12-27T01:50:28.591Z,5.16
2022-12-27T01:52:59.822Z,5.27
2022-12-27T01:55:36.055Z,5.40
2022-12-27T01:58:11.313Z,5.26
2022-12-27T02:00:40.211Z,5.19
2022-12-27T02:03:10.827Z,5.32
2022-12-27T02:05:41.719Z,5.04
2022-12-27T02:08:29.091Z,4.93
2022-12-27T02:10:57.288Z,5.01
2022-12-27T02:13:29.295Z,5.15
2022-12-27T02:15:56.358Z,5.33
2022-12-27T02:18:25.799Z,5.26
2022-12-27T02:21:26.200Z,5.23
2022-12-27T02:24:33.198Z,5.06
2022-12-27T02:27:33.653Z,5.15
2022-12-27T02:30:07.624Z,5.23
2022-12-27T02:32:55.090Z,5.30
2022-12-27T02:35:33.694Z,5.23
2022-12-27T02:38:18.138Z,5.36
2022-12-27T02:41:05.400Z,5.49
2022-12-27T02:43:51.966Z,5.33
2022-12-27T02:46:43.022Z,5.22
2022-12-27T02:49:52.542Z,5.27
2022-12-27T02:53:04.150Z,5.03
2022-12-27T02:56:36.805Z,5.09
2022-12-27T02:59:15.602Z,5.13
2022-12-27T03:02:10.099Z,5.16
2022-12-27T03:05:16.147Z,4.84
2022-12-27T03:08:24.017Z,5.07
2022-12-27T03:11:18.182Z,5.23
2022-12-27T03:14:20.743Z,5.24
2022-12-27T03:16:56.240Z,5.03
2022-12-27T03:19:48.363Z,5.21
2022-12-27T03:22:40.292Z,5.35
2022-12-27T03:25:26.329Z,5.06
2022-12-27T03:28:20.685Z,5.22
2022-12-27T03:31:13.968Z,5.26
2022-12-27T03:33:43.223Z,5.47
2022-12-27T03:36:40.100Z,5.50
2022-12-27T03:39:11.485Z,5.29
2022-12-27T03:42:20.649Z,5.53
2022-12-27T03:44:50.114Z,5.36
2022-12-27T03:47:39.709Z,5.32
2022-12-27T03:50:25.401Z,5.34
2022-12-27T03:52:58.395Z,5.47
2022-12-27T03:55:33.444Z,5.47
2022-12-27T03:58:00.889Z,5.50
2022-12-27T04:00:28.057Z,5.54
2022-12-27T04:02:57.819Z,5.32
2022-12-27T04:05:29.302Z,5.64
2022-12-27T04:08:14.602Z,5.48
2022-12-27T04:11:00.164Z,5.56
2022-12-27T04:13:45.856Z,5.44
2022-12-27T04:16:31.043Z,5.48
2022-12-27T04:19:16.810Z,5.48
2022-12-27T04:22:01.999Z,5.58
2022-12-27T04:24:47.300Z,5.69
2022-12-27T04:27:32.730Z,5.78
2022-12-27T04:30:18.010Z,5.53
2022-12-27T04:33:06.519Z,5.45
2022-12-27T04:35:36.034Z,5.82
2022-12-27T04:38:05.484Z,5.90
2022-12-27T04:40:50.754Z,5.86
2022-12-27T04:43:36.122Z,5.86
2022-12-27T04:46:21.789Z,5.88
2022-12-27T04:49:07.017Z,5.81
2022-12-27T04:51:52.451Z,5.91
2022-12-27T04:54:43.814Z,5.82
2022-12-27T04:57:10.810Z,5.82
2022-12-27T04:59:58.555Z,6.05
2022-12-27T05:02:30.393Z,5.91
2022-12-27T05:05:00.479Z,5.75
2022-12-27T05:07:48.293Z,6.01
2022-12-27T05:10:38.469Z,5.88
2022-12-27T05:13:30.825Z,5.83
2022-12-27T05:15:58.148Z,5.89
2022-12-27T05:18:25.106Z,5.89
2022-12-27T05:20:54.725Z,5.90
2022-12-27T05:23:42.391Z,5.83
2022-12-27T05:26:09.613Z,5.94
2022-12-27T05:28:36.460Z,6.00
2022-12-27T05:31:03.425Z,5.98
2022-12-27T05:33:33.385Z,5.93
2022-12-27T05:36:00.882Z,5.87
2022-12-27T05:38:29.999Z,6.03
2022-12-27T05:41:04.152Z,6.19
2022-12-27T05:43:35.098Z,6.14
2022-12-27T05:46:14.258Z,6.08
2022-12-27T05:48:42.007Z,5.95
2022-12-27T05:51:12.635Z,6.24
2022-12-27T05:53:40.361Z,6.23
2022-12-27T05:56:11.342Z,6.17
2022-12-27T05:58:38.314Z,6.11
2022-12-27T06:01:10.563Z,5.87
2022-12-27T06:03:38.038Z,6.06
2022-12-27T06:06:08.469Z,5.99
2022-12-27T06:08:36.734Z,5.87
2022-12-27T06:11:10.449Z,5.99
2022-12-27T06:13:41.948Z,6.01
2022-12-27T06:16:12.275Z,5.96
2022-12-27T06:18:41.480Z,6.10
2022-12-27T06:21:17.619Z,6.12
2022-12-27T06:23:45.895Z,6.09
2022-12-27T06:26:28.073Z,6.15
2022-12-27T06:28:57.303Z,6.18
2022-12-27T06:31:27.892Z,6.24
2022-12-27T06:33:57.782Z,6.45
2022-12-27T06:36:32.634Z,6.44
2022-12-27T06:39:00.886Z,6.35
2022-12-27T06:41:27.886Z,6.32
2022-12-27T06:44:00.939Z,6.46
2022-12-27T06:46:30.083Z,6.39
2022-12-27T06:48:57.582Z,6.38
2022-12-27T06:51:26.569Z,6.42
2022-12-27T06:53:53.531Z,6.50
2022-12-27T06:56:25.077Z,6.41
2022-12-27T06:58:52.193Z,6.61
2022-12-27T07:01:27.394Z,6.41
2022-12-27T07:03:59.526Z,6.24
2022-12-27T07:06:36.024Z,6.24
2022-12-27T07:09:06.066Z,6.39
2022-12-27T07:11:39.442Z,6.42
2022-12-27T07:14:10.263Z,6.28
2022-12-27T07:16:37.599Z,6.17
2022-12-27T07:19:07.128Z,6.22
2022-12-27T07:21:37.152Z,6.35
2022-12-27T07:24:09.322Z,6.48
2022-12-27T07:26:36.275Z,6.39
2022-12-27T07:29:05.719Z,6.44
2022-12-27T07:31:35.783Z,6.28
2022-12-27T07:34:06.386Z,6.35
2022-12-27T07:36:37.549Z,6.52
2022-12-27T07:39:05.841Z,6.55
2022-12-27T07:41:35.876Z,6.68
2022-12-27T07:44:03.921Z,6.70
2022-12-27T07:46:31.196Z,6.53
2022-12-27T07:48:58.743Z,6.71
2022-12-27T07:51:27.028Z,6.68
2022-12-27T07:53:54.508Z,6.53
2022-12-27T07:56:27.325Z,6.50
2022-12-27T07:58:57.335Z,6.70
2022-12-27T08:01:28.066Z,6.93
2022-12-27T08:03:55.563Z,7.07
2022-12-27T08:06:23.903Z,6.66
2022-12-27T08:08:55.584Z,6.92
2022-12-27T08:11:26.714Z,6.93
2022-12-27T08:13:53.935Z,6.70
2022-12-27T08:16:24.911Z,6.68
2022-12-27T08:18:56.334Z,6.59
2022-12-27T08:21:26.304Z,6.64
2022-12-27T08:24:02.212Z,6.75
2022-12-27T08:26:32.124Z,6.81
2022-12-27T08:29:01.194Z,6.66
2022-12-27T08:31:30.314Z,6.95
2022-12-27T08:33:59.623Z,7.28
2022-12-27T08:39:13.606Z,7.09
2022-12-27T08:41:40.673Z,7.02
2022-12-27T08:44:12.575Z,6.89
2022-12-27T08:46:39.714Z,7.04
2022-12-27T08:49:06.734Z,7.18
2022-12-27T08:51:41.068Z,6.91
2022-12-27T08:54:11.550Z,7.10
2022-12-27T08:56:38.495Z,7.40
2022-12-27T08:59:05.466Z,7.48
2022-12-27T09:01:32.862Z,7.73
2022-12-27T09:03:59.836Z,8.65
2022-12-27T09:06:28.889Z,9.00
2022-12-27T09:08:59.683Z,8.33
2022-12-27T09:11:30.656Z,8.16
2022-12-27T09:14:01.394Z,7.88
2022-12-27T09:16:29.865Z,7.57
2022-12-27T09:18:59.254Z,7.51
2022-12-27T09:21:29.207Z,7.45
2022-12-27T09:23:59.119Z,7.21
2022-12-27T09:26:29.525Z,7.29
2022-12-27T09:29:00.080Z,7.27
2022-12-27T09:31:28.304Z,7.19
2022-12-27T09:33:55.822Z,7.31
2022-12-27T09:36:30.809Z,7.81
2022-12-27T09:38:59.055Z,8.42
2022-12-27T09:45:17.870Z,10.09
2022-12-27T09:48:09.424Z,12.38
2022-12-27T09:50:55.874Z,13.14
2022-12-27T09:53:48.701Z,13.87
2022-12-27T09:56:35.693Z,12.98
2022-12-27T09:59:24.115Z,13.72
2022-12-27T10:01:51.653Z,13.74
2022-12-27T10:04:21.712Z,14.25
2022-12-27T10:07:03.797Z,14.89
2022-12-27T10:10:29.433Z,15.51
2022-12-27T10:13:23.705Z,15.88
2022-12-27T10:16:18.013Z,15.94
2022-12-27T10:19:13.359Z,16.89
2022-12-27T10:22:17.488Z,15.65
2022-12-27T10:24:57.337Z,16.07
2022-12-27T10:27:31.939Z,15.06
2022-12-27T10:30:00.316Z,14.67
2022-12-27T10:32:30.273Z,14.38
2022-12-27T10:35:01.326Z,13.00
2022-12-27T10:37:28.741Z,11.70
2022-12-27T10:40:32.487Z,11.09
2022-12-27T10:43:18.444Z,10.98
2022-12-27T10:45:45.593Z,10.62
2022-12-27T10:48:25.120Z,10.26
2022-12-27T10:50:59.355Z,11.29
2022-12-27T10:53:40.609Z,11.81
2022-12-27T10:56:17.500Z,11.47
2022-12-27T10:58:58.862Z,12.27
2022-12-27T11:01:32.469Z,11.80
2022-12-27T11:04:24.087Z,11.71
2022-12-27T11:07:00.117Z,10.85
2022-12-27T11:09:41.512Z,11.46
2022-12-27T11:12:18.620Z,11.25
2022-12-27T11:15:25.080Z,12.87
2022-12-27T11:18:02.260Z,14.28
2022-12-27T11:20:49.740Z,13.89
2022-12-27T11:23:22.647Z,14.39
2022-12-27T11:25:58.220Z,14.14
2022-12-27T11:28:50.923Z,15.22
2022-12-27T11:31:35.868Z,14.42
2022-12-27T11:34:16.012Z,16.22
2022-12-27T11:36:48.306Z,15.71
2022-12-27T11:39:43.034Z,13.94
2022-12-27T11:42:38.482Z,13.13
2022-12-27T11:45:49.603Z,11.46
2022-12-27T11:48:45.265Z,12.82
2022-12-27T11:51:40.236Z,13.07
2022-12-27T11:54:57.129Z,13.00
2022-12-27T11:57:42.598Z,13.40
2022-12-27T12:00:23.651Z,13.93
2022-12-27T12:03:27.898Z,14.64
2022-12-27T12:06:15.869Z,15.58
2022-12-27T12:09:10.391Z,14.80
2022-12-27T12:12:01.102Z,14.17
2022-12-27T12:14:44.248Z,14.62
2022-12-27T12:17:41.769Z,13.73
2022-12-27T12:20:50.336Z,13.79
2022-12-27T12:23:26.742Z,14.00
2022-12-27T12:26:16.104Z,12.87
2022-12-27T12:29:06.517Z,12.27
2022-12-27T12:31:55.904Z,11.76
2022-12-27T12:34:56.575Z,11.28
2022-12-27T12:38:00.638Z,10.94
2022-12-27T12:41:11.032Z,11.57
2022-12-27T12:43:43.667Z,11.52
2022-12-27T12:46:46.069Z,11.52
2022-12-27T12:49:32.722Z,12.29
2022-12-27T12:52:24.595Z,13.79
2022-12-27T12:55:19.953Z,15.05
2022-12-27T12:58:08.022Z,15.76
2022-12-27T13:00:49.637Z,17.22
2022-12-27T13:04:01.960Z,17.05
2022-12-27T13:07:11.862Z,15.60
2022-12-27T13:10:17.001Z,14.26
2022-12-27T13:13:20.327Z,12.07
2022-12-27T13:16:21.741Z,11.52
2022-12-27T13:19:14.694Z,11.52
2022-12-27T13:22:19.391Z,11.12
2022-12-27T13:25:21.055Z,11.09
2022-12-27T13:28:13.993Z,10.85
2022-12-27T13:31:09.674Z,10.31
2022-12-27T13:34:16.295Z,10.08
2022-12-27T13:37:24.853Z,9.71
2022-12-27T13:40:25.883Z,9.46
2022-12-27T13:43:40.834Z,9.67
2022-12-27T13:46:33.168Z,9.53
2022-12-27T13:49:40.571Z,9.63
2022-12-27T13:52:59.731Z,9.33
2022-12-27T13:55:45.146Z,9.25
2022-12-27T13:58:20.825Z,9.31
2022-12-27T14:01:24.851Z,9.59
2022-12-27T14:04:28.728Z,9.05
2022-12-27T14:07:21.795Z,9.19
2022-12-27T14:10:15.292Z,9.20
2022-12-27T14:12:48.062Z,9.15
2022-12-27T14:15:22.738Z,8.89
2022-12-27T14:18:08.379Z,8.96
2022-12-27T14:20:51.479Z,8.87
2022-12-27T14:23:56.005Z,8.93
2022-12-27T14:26:48.437Z,8.48
2022-12-27T14:29:45.131Z,8.25
2022-12-27T14:32:33.613Z,8.27
2022-12-27T14:35:47.086Z,8.39
2022-12-27T14:38:39.756Z,8.23
2022-12-27T14:41:29.350Z,7.96
2022-12-27T14:44:29.568Z,7.86
2022-12-27T14:47:45.750Z,7.88
2022-12-27T14:50:40.051Z,8.04
2022-12-27T14:53:37.024Z,7.67
2022-12-27T14:56:24.988Z,7.74
2022-12-27T14:59:09.642Z,7.69
2022-12-27T15:02:20.631Z,7.64
2022-12-27T15:05:23.575Z,7.50
2022-12-27T15:08:12.110Z,7.53
2022-12-27T15:10:54.001Z,7.86
2022-12-27T15:13:54.806Z,7.76
2022-12-27T15:16:52.634Z,7.36
2022-12-27T15:19:59.556Z,7.31
2022-12-27T15:22:38.227Z,7.30
2022-12-27T15:25:38.372Z,7.34
2022-12-27T15:28:52.542Z,7.40
2022-12-27T15:31:19.297Z,7.35
2022-12-27T15:34:36.302Z,7.28
2022-12-27T15:37:03.542Z,7.41
2022-12-27T15:39:47.911Z,7.17
2022-12-27T15:42:44.825Z,7.07
2022-12-27T15:45:48.600Z,7.07
2022-12-27T15:48:51.589Z,7.11
2022-12-27T15:51:45.810Z,7.00
2022-12-27T15:54:30.625Z,7.18
2022-12-27T15:57:03.172Z,6.96
2022-12-27T15:59:48.144Z,7.07
2022-12-27T16:02:34.123Z,6.79
2022-12-27T16:05:01.108Z,6.82
2022-12-27T16:07:52.558Z,7.05
2022-12-27T16:10:31.962Z,7.11
2022-12-27T16:13:06.893Z,6.76
2022-12-27T16:15:55.439Z,7.04
2022-12-27T16:18:22.280Z,7.00
2022-12-27T16:21:27.595Z,7.04
2022-12-27T16:24:03.627Z,6.92
2022-12-27T16:26:35.783Z,6.75
2022-12-27T16:29:13.537Z,6.88
2022-12-27T16:31:49.530Z,6.89
2022-12-27T16:34:31.750Z,6.72
2022-12-27T16:37:00.774Z,6.72
2022-12-27T16:39:51.811Z,6.86
2022-12-27T16:42:28.576Z,6.76
2022-12-27T16:45:23.127Z,6.73
2022-12-27T16:48:11.024Z,6.85
2022-12-27T16:51:23.442Z,6.89
2022-12-27T16:54:16.716Z,6.79
2022-12-27T16:56:48.035Z,6.97
2022-12-27T17:00:07.417Z,6.63
2022-12-27T17:02:54.490Z,6.37
2022-12-27T17:05:36.366Z,6.61
2022-12-27T17:08:30.585Z,6.74
2022-12-27T17:11:28.285Z,6.59
2022-12-27T17:14:03.147Z,6.58
2022-12-27T17:16:44.265Z,6.59
2022-12-27T17:19:45.925Z,6.65
2022-12-27T17:22:15.944Z,6.62
2022-12-27T17:24:56.059Z,6.61
2022-12-27T17:27:38.801Z,6.39
2022-12-27T17:30:24.644Z,6.28
2022-12-27T17:33:26.274Z,6.36
2022-12-27T17:36:26.390Z,6.33
2022-12-27T17:39:08.710Z,6.39
2022-12-27T17:42:31.252Z,6.52
2022-12-27T17:45:38.281Z,6.52
2022-12-27T17:48:29.331Z,7.00
2022-12-27T17:51:05.384Z,6.84
2022-12-27T17:53:53.145Z,6.83
2022-12-27T17:57:02.574Z,6.87
2022-12-27T17:59:34.851Z,7.05
2022-12-27T18:02:12.408Z,6.99
2022-12-27T18:04:48.129Z,6.92
2022-12-27T18:07:22.905Z,6.78
2022-12-27T18:09:53.723Z,6.79
2022-12-27T18:12:54.020Z,6.75
2022-12-27T18:15:26.910Z,6.86
2022-12-27T18:18:09.788Z,6.99
2022-12-27T18:20:42.160Z,7.01
2022-12-27T18:23:17.667Z,7.14
2022-12-27T18:25:44.490Z,7.01
2022-12-27T18:28:49.125Z,7.39
2022-12-27T18:31:35.902Z,7.29
2022-12-27T18:34:19.144Z,7.16
2022-12-27T18:36:58.758Z,7.21
2022-12-27T18:39:29.904Z,7.18
2022-12-27T18:41:58.381Z,7.29
2022-12-27T18:44:54.120Z,7.22
2022-12-27T18:47:27.155Z,7.42
2022-12-27T18:50:03.337Z,7.07
2022-12-27T18:52:34.816Z,7.14
2022-12-27T18:55:28.967Z,7.12
2022-12-27T18:58:20.802Z,6.69
2022-12-27T19:00:59.087Z,6.77
2022-12-27T19:03:27.254Z,7.00
2022-12-27T19:06:04.743Z,7.08
2022-12-27T19:08:52.765Z,7.08
2022-12-27T19:11:29.428Z,6.95
2022-12-27T19:14:01.177Z,7.11
2022-12-27T19:16:34.371Z,7.22
2022-12-27T19:19:20.428Z,7.24
2022-12-27T19:21:49.581Z,6.98
2022-12-27T19:24:28.813Z,7.08
2022-12-27T19:27:00.735Z,7.05
2022-12-27T19:29:36.534Z,6.84
2022-12-27T19:32:11.907Z,6.59
2022-12-27T19:34:50.614Z,6.68
2022-12-27T19:37:18.177Z,6.63
2022-12-27T19:39:47.843Z,6.63
2022-12-27T19:42:30.808Z,6.47
2022-12-27T19:44:57.998Z,6.46
2022-12-27T19:47:29.002Z,6.48
2022-12-27T19:49:56.026Z,6.51
2022-12-27T19:52:27.106Z,6.29
2022-12-27T19:55:08.063Z,6.11
2022-12-27T19:57:35.121Z,6.24
2022-12-27T20:00:05.366Z,6.22
2022-12-27T20:02:38.676Z,6.05
2022-12-27T20:05:06.765Z,5.98
2022-12-27T20:07:39.394Z,6.25
2022-12-27T20:10:07.334Z,6.15
2022-12-27T20:12:38.747Z,6.25
2022-12-27T20:15:06.629Z,6.26
2022-12-27T20:17:41.051Z,6.34
2022-12-27T20:20:14.847Z,6.20
2022-12-27T20:22:42.596Z,6.12
2022-12-27T20:25:11.543Z,6.21
2022-12-27T20:27:42.937Z,6.23
2022-12-27T20:30:11.298Z,6.12
2022-12-27T20:32:39.966Z,6.13
2022-12-27T20:35:11.173Z,6.14
2022-12-27T20:37:39.458Z,6.10
2022-12-27T20:40:13.847Z,6.09
2022-12-27T20:42:41.384Z,6.18
2022-12-27T20:45:11.795Z,6.22
2022-12-27T20:47:40.733Z,6.22
2022-12-27T20:50:10.740Z,6.38
2022-12-27T20:52:39.156Z,6.43
2022-12-27T20:55:12.263Z,6.22
2022-12-27T20:57:39.739Z,6.42
2022-12-27T21:00:13.629Z,6.31
2022-12-27T21:02:43.062Z,6.30
2022-12-27T21:05:12.764Z,6.09
2022-12-27T21:07:39.692Z,6.37
2022-12-27T21:10:08.760Z,6.41
2022-12-27T21:12:42.401Z,6.51
2022-12-27T21:15:11.656Z,6.33
2022-12-27T21:17:39.209Z,6.32
2022-12-27T21:20:11.161Z,6.44
2022-12-27T21:22:40.339Z,6.45
2022-12-27T21:25:08.797Z,6.70
2022-12-27T21:27:36.789Z,6.50
2022-12-27T21:30:08.491Z,6.63
2022-12-27T21:32:37.004Z,6.58
2022-12-27T21:35:05.360Z,6.50
2022-12-27T21:37:32.804Z,6.47
2022-12-27T21:40:02.051Z,6.68
2022-12-27T21:42:28.938Z,6.74
2022-12-27T21:44:55.902Z,6.61
2022-12-27T21:47:23.412Z,6.78
2022-12-27T21:49:52.825Z,6.80
2022-12-27T21:52:19.717Z,7.06
2022-12-27T21:54:46.535Z,7.40
2022-12-27T21:57:13.451Z,7.23
2022-12-27T21:59:40.286Z,7.15
2022-12-27T22:02:08.739Z,7.22
2022-12-27T22:04:35.726Z,7.21
2022-12-27T22:07:02.653Z,7.37
2022-12-27T22:09:29.616Z,7.33
2022-12-27T22:11:56.819Z,7.29
2022-12-27T22:14:28.401Z,7.39
2022-12-27T22:17:00.635Z,7.43
2022-12-27T22:19:27.985Z,7.46
2022-12-27T22:21:54.976Z,7.41
2022-12-27T22:24:21.840Z,7.52
2022-12-27T22:26:50.132Z,7.42
2022-12-27T22:29:17.900Z,7.31
2022-12-27T22:31:45.073Z,7.48
2022-12-27T22:34:14.561Z,7.44
2022-12-27T22:36:41.431Z,7.50
2022-12-27T22:39:08.373Z,7.41
2022-12-27T22:41:39.100Z,7.38
2022-12-27T22:44:11.184Z,7.53
2022-12-27T22:47:06.869Z,7.48
2022-12-27T22:49:26.193Z,7.30
2022-12-27T22:51:53.650Z,7.53
2022-12-27T22:54:20.649Z,7.27
2022-12-27T22:57:10.860Z,7.40
2022-12-27T22:59:37.902Z,7.37
2022-12-27T23:02:05.209Z,7.41
2022-12-27T23:04:34.485Z,7.36
2022-12-27T23:07:02.185Z,7.55
2022-12-27T23:09:29.391Z,7.55
2022-12-27T23:11:56.606Z,7.42
2022-12-27T23:14:26.110Z,7.39
2022-12-27T23:16:53.104Z,7.62
2022-12-27T23:19:24.351Z,7.33
2022-12-27T23:21:53.593Z,7.42
2022-12-27T23:24:22.977Z,7.44
2022-12-27T23:26:49.877Z,7.58
2022-12-27T23:29:17.002Z,7.59
2022-12-27T23:31:54.944Z,7.62
2022-12-27T23:34:28.728Z,7.82
2022-12-27T23:36:58.052Z,7.71
2022-12-27T23:39:27.580Z,7.83
2022-12-27T23:41:55.240Z,7.87
2022-12-27T23:44:34.399Z,8.11
2022-12-27T23:47:07.247Z,7.99
2022-12-27T23:49:34.541Z,7.87
2022-12-27T23:52:04.196Z,7.84
2022-12-27T23:54:31.183Z,7.95
2022-12-27T23:57:22.274Z,7.69
2022-12-27T23:59:47.502Z,7.90
